sensor_id;sensor_type;location;lat;lon;timestamp;P1;durP1;ratioP1;P2;durP2;ratioP2
72369;SDS011;60343;-32.030;115.880;2023-11-19T00:01:21;2.38;;;0.30;;
72369;SDS011;60343;-32.030;115.880;2023-11-19T00:03:56;3.63;;;0.50;;
72369;SDS011;60343;-32.030;115.880;2023-11-19T00:06:31;3.60;;;0.57;;
72369;SDS011;60343;-32.030;115.880;2023-11-19T00:09:07;3.47;;;0.50;;
72369;SDS011;60343;-32.030;115.880;2023-11-19T00:11:43;2.67;;;0.40;;
72369;SDS011;60343;-32.030;115.880;2023-11-19T00:14:18;3.33;;;0.32;;
72369;SDS011;60343;-32.030;115.880;2023-11-19T00:17:01;2.78;;;0.50;;
72369;SDS011;60343;-32.030;115.880;2023-11-19T00:19:36;2.03;;;0.50;;
72369;SDS011;60343;-32.030;115.880;2023-11-19T00:22:13;1.20;;;0.30;;
72369;SDS011;60343;-32.030;115.880;2023-11-19T00:24:48;3.63;;;0.47;;
72369;SDS011;60343;-32.030;115.880;2023-11-19T00:27:23;4.45;;;0.40;;
72369;SDS011;60343;-32.030;115.880;2023-11-19T00:29:58;4.72;;;0.50;;
72369;SDS011;60343;-32.030;115.880;2023-11-19T00:32:40;4.93;;;0.40;;
72369;SDS011;60343;-32.030;115.880;2023-11-19T00:35:15;3.00;;;0.47;;
72369;SDS011;60343;-32.030;115.880;2023-11-19T00:37:51;1.60;;;0.40;;
72369;SDS011;60343;-32.030;115.880;2023-11-19T00:40:26;2.67;;;0.32;;
72369;SDS011;60343;-32.030;115.880;2023-11-19T00:43:03;3.50;;;0.80;;
72369;SDS011;60343;-32.030;115.880;2023-11-19T00:45:38;3.25;;;0.50;;
72369;SDS011;60343;-32.030;115.880;2023-11-19T00:48:19;3.28;;;0.50;;
72369;SDS011;60343;-32.030;115.880;2023-11-19T00:50:55;1.55;;;0.43;;
72369;SDS011;60343;-32.030;115.880;2023-11-19T00:53:31;4.03;;;0.40;;
72369;SDS011;60343;-32.030;115.880;2023-11-19T00:56:06;2.65;;;0.43;;
72369;SDS011;60343;-32.030;115.880;2023-11-19T00:58:45;2.42;;;0.32;;
72369;SDS011;60343;-32.030;115.880;2023-11-19T01:01:20;1.63;;;0.35;;
72369;SDS011;60343;-32.030;115.880;2023-11-19T01:04:02;3.38;;;0.50;;
72369;SDS011;60343;-32.030;115.880;2023-11-19T01:06:37;2.20;;;0.40;;
72369;SDS011;60343;-32.030;115.880;2023-11-19T01:09:12;4.20;;;0.60;;
72369;SDS011;60343;-32.030;115.880;2023-11-19T01:11:47;1.67;;;0.20;;
72369;SDS011;60343;-32.030;115.880;2023-11-19T01:14:22;2.75;;;0.50;;
72369;SDS011;60343;-32.030;115.880;2023-11-19T01:16:57;1.02;;;0.30;;
72369;SDS011;60343;-32.030;115.880;2023-11-19T01:19:41;5.72;;;0.60;;
72369;SDS011;60343;-32.030;115.880;2023-11-19T01:22:16;2.15;;;0.38;;
72369;SDS011;60343;-32.030;115.880;2023-11-19T01:24:51;2.97;;;0.35;;
72369;SDS011;60343;-32.030;115.880;2023-11-19T01:27:26;7.68;;;0.55;;
72369;SDS011;60343;-32.030;115.880;2023-11-19T01:30:02;4.93;;;0.55;;
72369;SDS011;60343;-32.030;115.880;2023-11-19T01:32:39;3.33;;;0.40;;
72369;SDS011;60343;-32.030;115.880;2023-11-19T01:35:20;1.85;;;0.30;;
72369;SDS011;60343;-32.030;115.880;2023-11-19T01:37:55;3.10;;;0.40;;
72369;SDS011;60343;-32.030;115.880;2023-11-19T01:40:30;3.83;;;0.40;;
72369;SDS011;60343;-32.030;115.880;2023-11-19T01:43:06;0.77;;;0.30;;
72369;SDS011;60343;-32.030;115.880;2023-11-19T01:45:41;2.30;;;0.43;;
72369;SDS011;60343;-32.030;115.880;2023-11-19T01:48:16;1.33;;;0.38;;
72369;SDS011;60343;-32.030;115.880;2023-11-19T01:50:57;1.33;;;0.30;;
72369;SDS011;60343;-32.030;115.880;2023-11-19T01:53:34;3.05;;;0.40;;
72369;SDS011;60343;-32.030;115.880;2023-11-19T01:56:11;4.35;;;0.40;;
72369;SDS011;60343;-32.030;115.880;2023-11-19T01:58:48;3.30;;;0.40;;
72369;SDS011;60343;-32.030;115.880;2023-11-19T02:01:24;2.78;;;0.40;;
72369;SDS011;60343;-32.030;115.880;2023-11-19T02:04:04;2.60;;;0.50;;
72369;SDS011;60343;-32.030;115.880;2023-11-19T02:06:46;3.25;;;0.50;;
72369;SDS011;60343;-32.030;115.880;2023-11-19T02:09:25;2.78;;;0.40;;
72369;SDS011;60343;-32.030;115.880;2023-11-19T02:12:00;2.17;;;0.40;;
72369;SDS011;60343;-32.030;115.880;2023-11-19T02:14:38;2.47;;;0.30;;
72369;SDS011;60343;-32.030;115.880;2023-11-19T02:17:25;2.80;;;0.60;;
72369;SDS011;60343;-32.030;115.880;2023-11-19T02:20:01;4.38;;;0.52;;
72369;SDS011;60343;-32.030;115.880;2023-11-19T02:22:47;3.03;;;0.40;;
72369;SDS011;60343;-32.030;115.880;2023-11-19T02:25:24;3.25;;;0.60;;
72369;SDS011;60343;-32.030;115.880;2023-11-19T02:28:09;4.28;;;0.40;;
72369;SDS011;60343;-32.030;115.880;2023-11-19T02:30:44;1.58;;;0.40;;
72369;SDS011;60343;-32.030;115.880;2023-11-19T02:33:19;3.88;;;0.40;;
72369;SDS011;60343;-32.030;115.880;2023-11-19T02:35:55;1.50;;;0.32;;
72369;SDS011;60343;-32.030;115.880;2023-11-19T02:38:30;1.67;;;0.40;;
72369;SDS011;60343;-32.030;115.880;2023-11-19T02:41:06;1.63;;;0.40;;
72369;SDS011;60343;-32.030;115.880;2023-11-19T02:43:48;2.25;;;0.40;;
72369;SDS011;60343;-32.030;115.880;2023-11-19T02:46:23;3.25;;;0.57;;
72369;SDS011;60343;-32.030;115.880;2023-11-19T02:48:58;2.00;;;0.40;;
72369;SDS011;60343;-32.030;115.880;2023-11-19T02:51:34;1.58;;;0.38;;
72369;SDS011;60343;-32.030;115.880;2023-11-19T02:54:09;3.08;;;0.40;;
72369;SDS011;60343;-32.030;115.880;2023-11-19T02:56:44;2.65;;;0.40;;
72369;SDS011;60343;-32.030;115.880;2023-11-19T02:59:31;2.60;;;0.30;;
72369;SDS011;60343;-32.030;115.880;2023-11-19T03:02:09;4.07;;;0.45;;
72369;SDS011;60343;-32.030;115.880;2023-11-19T03:04:44;3.45;;;0.40;;
72369;SDS011;60343;-32.030;115.880;2023-11-19T03:07:19;2.83;;;0.50;;
72369;SDS011;60343;-32.030;115.880;2023-11-19T03:09:54;4.03;;;0.22;;
72369;SDS011;60343;-32.030;115.880;2023-11-19T03:12:31;5.15;;;0.40;;
72369;SDS011;60343;-32.030;115.880;2023-11-19T03:15:13;2.95;;;0.68;;
72369;SDS011;60343;-32.030;115.880;2023-11-19T03:17:49;2.80;;;0.50;;
72369;SDS011;60343;-32.030;115.880;2023-11-19T03:20:24;1.70;;;0.35;;
72369;SDS011;60343;-32.030;115.880;2023-11-19T03:23:01;4.05;;;0.57;;
72369;SDS011;60343;-32.030;115.880;2023-11-19T03:25:36;3.22;;;0.70;;
72369;SDS011;60343;-32.030;115.880;2023-11-19T03:28:11;3.60;;;0.70;;
72369;SDS011;60343;-32.030;115.880;2023-11-19T03:30:52;6.45;;;0.70;;
72369;SDS011;60343;-32.030;115.880;2023-11-19T03:33:30;5.00;;;0.82;;
72369;SDS011;60343;-32.030;115.880;2023-11-19T03:36:05;5.72;;;0.80;;
72369;SDS011;60343;-32.030;115.880;2023-11-19T03:38:41;4.93;;;0.75;;
72369;SDS011;60343;-32.030;115.880;2023-11-19T03:41:17;7.05;;;1.00;;
72369;SDS011;60343;-32.030;115.880;2023-11-19T03:43:52;3.58;;;0.68;;
72369;SDS011;60343;-32.030;115.880;2023-11-19T03:46:34;5.18;;;1.00;;
72369;SDS011;60343;-32.030;115.880;2023-11-19T03:49:09;5.50;;;0.82;;
72369;SDS011;60343;-32.030;115.880;2023-11-19T03:51:44;6.00;;;0.70;;
72369;SDS011;60343;-32.030;115.880;2023-11-19T03:54:19;3.33;;;0.70;;
72369;SDS011;60343;-32.030;115.880;2023-11-19T03:56:55;3.83;;;0.95;;
72369;SDS011;60343;-32.030;115.880;2023-11-19T03:59:30;4.63;;;0.70;;
72369;SDS011;60343;-32.030;115.880;2023-11-19T04:02:11;5.85;;;0.55;;
72369;SDS011;60343;-32.030;115.880;2023-11-19T04:04:46;5.15;;;1.02;;
72369;SDS011;60343;-32.030;115.880;2023-11-19T04:07:21;3.40;;;0.68;;
72369;SDS011;60343;-32.030;115.880;2023-11-19T04:09:57;3.20;;;0.60;;
72369;SDS011;60343;-32.030;115.880;2023-11-19T04:12:34;3.92;;;0.90;;
72369;SDS011;60343;-32.030;115.880;2023-11-19T04:15:10;2.67;;;0.50;;
72369;SDS011;60343;-32.030;115.880;2023-11-19T04:17:51;2.78;;;0.60;;
72369;SDS011;60343;-32.030;115.880;2023-11-19T04:20:26;4.75;;;0.60;;
72369;SDS011;60343;-32.030;115.880;2023-11-19T04:23:02;4.53;;;0.68;;
72369;SDS011;60343;-32.030;115.880;2023-11-19T04:25:37;4.25;;;1.00;;
72369;SDS011;60343;-32.030;115.880;2023-11-19T04:28:13;3.33;;;0.52;;
72369;SDS011;60343;-32.030;115.880;2023-11-19T04:30:48;3.30;;;0.60;;
72369;SDS011;60343;-32.030;115.880;2023-11-19T04:33:29;2.60;;;0.43;;
72369;SDS011;60343;-32.030;115.880;2023-11-19T04:36:04;5.30;;;0.63;;
72369;SDS011;60343;-32.030;115.880;2023-11-19T04:38:40;1.50;;;0.50;;
72369;SDS011;60343;-32.030;115.880;2023-11-19T04:41:15;3.08;;;0.50;;
72369;SDS011;60343;-32.030;115.880;2023-11-19T04:43:50;3.75;;;0.47;;
72369;SDS011;60343;-32.030;115.880;2023-11-19T04:46:27;3.10;;;0.43;;
72369;SDS011;60343;-32.030;115.880;2023-11-19T04:49:08;2.65;;;0.50;;
72369;SDS011;60343;-32.030;115.880;2023-11-19T04:51:44;2.63;;;0.55;;
72369;SDS011;60343;-32.030;115.880;2023-11-19T04:54:21;4.20;;;0.70;;
72369;SDS011;60343;-32.030;115.880;2023-11-19T04:56:58;3.80;;;0.57;;
72369;SDS011;60343;-32.030;115.880;2023-11-19T04:59:34;3.47;;;0.80;;
72369;SDS011;60343;-32.030;115.880;2023-11-19T05:02:11;4.55;;;0.40;;
72369;SDS011;60343;-32.030;115.880;2023-11-19T05:04:52;2.58;;;0.50;;
72369;SDS011;60343;-32.030;115.880;2023-11-19T05:07:28;3.90;;;0.38;;
72369;SDS011;60343;-32.030;115.880;2023-11-19T05:10:04;6.85;;;0.57;;
72369;SDS011;60343;-32.030;115.880;2023-11-19T05:12:40;3.47;;;0.65;;
72369;SDS011;60343;-32.030;115.880;2023-11-19T05:15:15;4.75;;;0.50;;
72369;SDS011;60343;-32.030;115.880;2023-11-19T05:17:50;3.53;;;0.52;;
72369;SDS011;60343;-32.030;115.880;2023-11-19T05:20:32;1.90;;;0.40;;
72369;SDS011;60343;-32.030;115.880;2023-11-19T05:23:07;3.20;;;0.50;;
72369;SDS011;60343;-32.030;115.880;2023-11-19T05:25:42;7.95;;;0.60;;
72369;SDS011;60343;-32.030;115.880;2023-11-19T05:28:18;2.30;;;0.40;;
72369;SDS011;60343;-32.030;115.880;2023-11-19T05:30:53;3.05;;;0.40;;
72369;SDS011;60343;-32.030;115.880;2023-11-19T05:33:29;5.30;;;0.60;;
72369;SDS011;60343;-32.030;115.880;2023-11-19T05:36:12;2.08;;;0.40;;
72369;SDS011;60343;-32.030;115.880;2023-11-19T05:38:47;2.10;;;0.28;;
72369;SDS011;60343;-32.030;115.880;2023-11-19T05:41:22;5.13;;;0.50;;
72369;SDS011;60343;-32.030;115.880;2023-11-19T05:43:57;3.20;;;0.47;;
72369;SDS011;60343;-32.030;115.880;2023-11-19T05:46:32;3.00;;;0.50;;
72369;SDS011;60343;-32.030;115.880;2023-11-19T05:49:10;5.30;;;0.55;;
72369;SDS011;60343;-32.030;115.880;2023-11-19T05:51:51;2.97;;;0.57;;
72369;SDS011;60343;-32.030;115.880;2023-11-19T05:54:29;2.75;;;0.40;;
72369;SDS011;60343;-32.030;115.880;2023-11-19T05:57:04;3.50;;;0.50;;
72369;SDS011;60343;-32.030;115.880;2023-11-19T05:59:40;3.22;;;0.57;;
72369;SDS011;60343;-32.030;115.880;2023-11-19T06:02:17;4.70;;;0.50;;
72369;SDS011;60343;-32.030;115.880;2023-11-19T06:04:53;3.38;;;0.35;;
72369;SDS011;60343;-32.030;115.880;2023-11-19T06:07:34;1.23;;;0.20;;
72369;SDS011;60343;-32.030;115.880;2023-11-19T06:10:12;3.58;;;0.30;;
72369;SDS011;60343;-32.030;115.880;2023-11-19T06:12:47;5.18;;;0.80;;
72369;SDS011;60343;-32.030;115.880;2023-11-19T06:15:23;2.58;;;0.57;;
72369;SDS011;60343;-32.030;115.880;2023-11-19T06:17:59;2.83;;;0.40;;
72369;SDS011;60343;-32.030;115.880;2023-11-19T06:20:34;1.98;;;0.32;;
72369;SDS011;60343;-32.030;115.880;2023-11-19T06:23:15;3.17;;;0.35;;
72369;SDS011;60343;-32.030;115.880;2023-11-19T06:25:50;1.80;;;0.30;;
72369;SDS011;60343;-32.030;115.880;2023-11-19T06:28:26;2.08;;;0.40;;
72369;SDS011;60343;-32.030;115.880;2023-11-19T06:31:01;2.65;;;0.45;;
72369;SDS011;60343;-32.030;115.880;2023-11-19T06:33:36;2.20;;;0.32;;
72369;SDS011;60343;-32.030;115.880;2023-11-19T06:36:13;2.10;;;0.43;;
72369;SDS011;60343;-32.030;115.880;2023-11-19T06:38:55;2.80;;;0.40;;
72369;SDS011;60343;-32.030;115.880;2023-11-19T06:41:30;0.98;;;0.38;;
72369;SDS011;60343;-32.030;115.880;2023-11-19T06:44:05;3.08;;;0.30;;
72369;SDS011;60343;-32.030;115.880;2023-11-19T06:46:40;3.03;;;0.25;;
72369;SDS011;60343;-32.030;115.880;2023-11-19T06:49:15;2.78;;;0.40;;
72369;SDS011;60343;-32.030;115.880;2023-11-19T06:51:50;3.08;;;0.40;;
72369;SDS011;60343;-32.030;115.880;2023-11-19T06:54:31;3.08;;;0.55;;
72369;SDS011;60343;-32.030;115.880;2023-11-19T06:57:07;4.22;;;0.30;;
72369;SDS011;60343;-32.030;115.880;2023-11-19T06:59:42;2.58;;;0.30;;
72369;SDS011;60343;-32.030;115.880;2023-11-19T07:02:17;2.35;;;0.40;;
72369;SDS011;60343;-32.030;115.880;2023-11-19T07:04:53;1.92;;;0.30;;
72369;SDS011;60343;-32.030;115.880;2023-11-19T07:07:30;4.72;;;0.50;;
72369;SDS011;60343;-32.030;115.880;2023-11-19T07:10:12;5.95;;;0.60;;
72369;SDS011;60343;-32.030;115.880;2023-11-19T07:12:47;4.28;;;0.65;;
72369;SDS011;60343;-32.030;115.880;2023-11-19T07:15:23;2.88;;;0.40;;
72369;SDS011;60343;-32.030;115.880;2023-11-19T07:17:58;1.98;;;0.32;;
72369;SDS011;60343;-32.030;115.880;2023-11-19T07:20:33;3.88;;;0.60;;
72369;SDS011;60343;-32.030;115.880;2023-11-19T07:23:09;3.08;;;0.50;;
72369;SDS011;60343;-32.030;115.880;2023-11-19T07:25:51;3.40;;;0.30;;
72369;SDS011;60343;-32.030;115.880;2023-11-19T07:28:26;2.35;;;0.40;;
72369;SDS011;60343;-32.030;115.880;2023-11-19T07:31:02;4.07;;;0.40;;
72369;SDS011;60343;-32.030;115.880;2023-11-19T07:33:39;5.78;;;0.40;;
72369;SDS011;60343;-32.030;115.880;2023-11-19T07:36:15;4.90;;;0.52;;
72369;SDS011;60343;-32.030;115.880;2023-11-19T07:38:50;2.88;;;0.50;;
72369;SDS011;60343;-32.030;115.880;2023-11-19T07:41:31;2.90;;;0.50;;
72369;SDS011;60343;-32.030;115.880;2023-11-19T07:44:08;3.95;;;0.40;;
72369;SDS011;60343;-32.030;115.880;2023-11-19T07:46:45;4.53;;;1.08;;
72369;SDS011;60343;-32.030;115.880;2023-11-19T07:49:21;5.63;;;0.55;;
72369;SDS011;60343;-32.030;115.880;2023-11-19T07:51:59;4.60;;;0.57;;
72369;SDS011;60343;-32.030;115.880;2023-11-19T07:54:34;2.72;;;0.55;;
72369;SDS011;60343;-32.030;115.880;2023-11-19T07:57:15;2.35;;;0.30;;
72369;SDS011;60343;-32.030;115.880;2023-11-19T07:59:50;4.13;;;0.43;;
72369;SDS011;60343;-32.030;115.880;2023-11-19T08:02:27;2.05;;;0.40;;
72369;SDS011;60343;-32.030;115.880;2023-11-19T08:05:02;3.47;;;0.40;;
72369;SDS011;60343;-32.030;115.880;2023-11-19T08:07:38;4.63;;;0.70;;
72369;SDS011;60343;-32.030;115.880;2023-11-19T08:10:13;4.18;;;0.55;;
72369;SDS011;60343;-32.030;115.880;2023-11-19T08:12:54;3.05;;;0.60;;
72369;SDS011;60343;-32.030;115.880;2023-11-19T08:15:29;6.80;;;0.57;;
72369;SDS011;60343;-32.030;115.880;2023-11-19T08:18:06;3.72;;;0.60;;
72369;SDS011;60343;-32.030;115.880;2023-11-19T08:20:41;4.00;;;0.70;;
72369;SDS011;60343;-32.030;115.880;2023-11-19T08:23:19;4.93;;;0.50;;
72369;SDS011;60343;-32.030;115.880;2023-11-19T08:25:55;5.63;;;0.70;;
72369;SDS011;60343;-32.030;115.880;2023-11-19T08:28:37;5.90;;;0.70;;
72369;SDS011;60343;-32.030;115.880;2023-11-19T08:31:12;3.22;;;0.50;;
72369;SDS011;60343;-32.030;115.880;2023-11-19T08:33:47;4.03;;;0.50;;
72369;SDS011;60343;-32.030;115.880;2023-11-19T08:36:22;2.95;;;0.55;;
72369;SDS011;60343;-32.030;115.880;2023-11-19T08:38:57;8.68;;;0.90;;
72369;SDS011;60343;-32.030;115.880;2023-11-19T08:41:34;2.75;;;0.68;;
72369;SDS011;60343;-32.030;115.880;2023-11-19T08:44:16;4.93;;;0.68;;
72369;SDS011;60343;-32.030;115.880;2023-11-19T08:46:51;3.33;;;0.80;;
72369;SDS011;60343;-32.030;115.880;2023-11-19T08:49:26;4.47;;;0.70;;
72369;SDS011;60343;-32.030;115.880;2023-11-19T08:52:01;2.28;;;0.40;;
72369;SDS011;60343;-32.030;115.880;2023-11-19T08:54:36;9.32;;;0.90;;
72369;SDS011;60343;-32.030;115.880;2023-11-19T08:57:15;2.90;;;0.60;;
72369;SDS011;60343;-32.030;115.880;2023-11-19T08:59:56;5.38;;;0.73;;
72369;SDS011;60343;-32.030;115.880;2023-11-19T09:02:33;6.78;;;0.80;;
72369;SDS011;60343;-32.030;115.880;2023-11-19T09:05:11;8.80;;;0.70;;
72369;SDS011;60343;-32.030;115.880;2023-11-19T09:07:47;4.88;;;0.98;;
72369;SDS011;60343;-32.030;115.880;2023-11-19T09:10:22;3.75;;;0.68;;
72369;SDS011;60343;-32.030;115.880;2023-11-19T09:12:59;4.22;;;0.65;;
72369;SDS011;60343;-32.030;115.880;2023-11-19T09:15:40;6.68;;;0.93;;
72369;SDS011;60343;-32.030;115.880;2023-11-19T09:18:15;4.43;;;1.10;;
72369;SDS011;60343;-32.030;115.880;2023-11-19T09:20:50;5.93;;;1.10;;
72369;SDS011;60343;-32.030;115.880;2023-11-19T09:23:25;7.57;;;1.00;;
72369;SDS011;60343;-32.030;115.880;2023-11-19T09:26:05;6.93;;;1.08;;
72369;SDS011;60343;-32.030;115.880;2023-11-19T09:28:41;6.70;;;1.10;;
72369;SDS011;60343;-32.030;115.880;2023-11-19T09:31:22;9.70;;;1.50;;
72369;SDS011;60343;-32.030;115.880;2023-11-19T09:33:58;8.07;;;1.00;;
72369;SDS011;60343;-32.030;115.880;2023-11-19T09:36:33;5.47;;;1.20;;
72369;SDS011;60343;-32.030;115.880;2023-11-19T09:39:10;5.53;;;1.10;;
72369;SDS011;60343;-32.030;115.880;2023-11-19T09:41:47;9.25;;;1.13;;
72369;SDS011;60343;-32.030;115.880;2023-11-19T09:44:24;6.85;;;1.38;;
72369;SDS011;60343;-32.030;115.880;2023-11-19T09:47:05;6.05;;;1.45;;
72369;SDS011;60343;-32.030;115.880;2023-11-19T09:49:41;8.50;;;1.10;;
72369;SDS011;60343;-32.030;115.880;2023-11-19T09:52:17;7.43;;;1.40;;
72369;SDS011;60343;-32.030;115.880;2023-11-19T09:54:52;5.70;;;1.25;;
72369;SDS011;60343;-32.030;115.880;2023-11-19T09:57:28;5.60;;;1.15;;
72369;SDS011;60343;-32.030;115.880;2023-11-19T10:00:06;8.27;;;1.00;;
72369;SDS011;60343;-32.030;115.880;2023-11-19T10:02:49;6.50;;;0.90;;
72369;SDS011;60343;-32.030;115.880;2023-11-19T10:05:24;5.85;;;0.95;;
72369;SDS011;60343;-32.030;115.880;2023-11-19T10:08:01;6.85;;;1.25;;
72369;SDS011;60343;-32.030;115.880;2023-11-19T10:10:37;9.20;;;1.27;;
72369;SDS011;60343;-32.030;115.880;2023-11-19T10:13:12;4.80;;;0.90;;
72369;SDS011;60343;-32.030;115.880;2023-11-19T10:15:48;4.72;;;0.98;;
72369;SDS011;60343;-32.030;115.880;2023-11-19T10:18:31;5.95;;;1.00;;
72369;SDS011;60343;-32.030;115.880;2023-11-19T10:21:08;4.72;;;0.82;;
72369;SDS011;60343;-32.030;115.880;2023-11-19T10:23:49;3.78;;;0.90;;
72369;SDS011;60343;-32.030;115.880;2023-11-19T10:26:26;7.32;;;1.40;;
72369;SDS011;60343;-32.030;115.880;2023-11-19T10:29:01;3.78;;;1.00;;
72369;SDS011;60343;-32.030;115.880;2023-11-19T10:31:37;8.60;;;1.40;;
72369;SDS011;60343;-32.030;115.880;2023-11-19T10:34:26;6.25;;;1.30;;
72369;SDS011;60343;-32.030;115.880;2023-11-19T10:37:05;9.43;;;1.42;;
72369;SDS011;60343;-32.030;115.880;2023-11-19T10:39:53;5.97;;;1.30;;
72369;SDS011;60343;-32.030;115.880;2023-11-19T10:42:31;9.40;;;1.00;;
72369;SDS011;60343;-32.030;115.880;2023-11-19T10:45:11;7.03;;;1.10;;
72369;SDS011;60343;-32.030;115.880;2023-11-19T10:47:56;7.55;;;1.17;;
72369;SDS011;60343;-32.030;115.880;2023-11-19T10:50:39;7.85;;;1.40;;
72369;SDS011;60343;-32.030;115.880;2023-11-19T10:53:15;5.22;;;1.27;;
72369;SDS011;60343;-32.030;115.880;2023-11-19T10:55:52;4.28;;;1.02;;
72369;SDS011;60343;-32.030;115.880;2023-11-19T10:58:32;5.22;;;0.88;;
72369;SDS011;60343;-32.030;115.880;2023-11-19T11:01:11;8.32;;;1.10;;
72369;SDS011;60343;-32.030;115.880;2023-11-19T11:03:51;7.05;;;1.13;;
72369;SDS011;60343;-32.030;115.880;2023-11-19T11:06:34;8.27;;;1.27;;
72369;SDS011;60343;-32.030;115.880;2023-11-19T11:09:10;11.20;;;1.10;;
72369;SDS011;60343;-32.030;115.880;2023-11-19T11:11:47;6.95;;;1.10;;
72369;SDS011;60343;-32.030;115.880;2023-11-19T11:14:23;9.13;;;1.20;;
72369;SDS011;60343;-32.030;115.880;2023-11-19T11:17:01;7.65;;;1.10;;
72369;SDS011;60343;-32.030;115.880;2023-11-19T11:19:38;6.30;;;1.42;;
72369;SDS011;60343;-32.030;115.880;2023-11-19T11:22:21;9.20;;;1.55;;
72369;SDS011;60343;-32.030;115.880;2023-11-19T11:25:01;8.48;;;1.40;;
72369;SDS011;60343;-32.030;115.880;2023-11-19T11:27:54;12.15;;;1.40;;
72369;SDS011;60343;-32.030;115.880;2023-11-19T11:30:46;7.57;;;1.35;;
72369;SDS011;60343;-32.030;115.880;2023-11-19T11:33:34;8.98;;;1.63;;
72369;SDS011;60343;-32.030;115.880;2023-11-19T11:36:27;4.93;;;1.00;;
72369;SDS011;60343;-32.030;115.880;2023-11-19T11:41:46;5.50;;;1.00;;
72369;SDS011;60343;-32.030;115.880;2023-11-19T11:50:46;7.80;;;1.45;;
72369;SDS011;60343;-32.030;115.880;2023-11-19T11:53:24;10.57;;;1.67;;
72369;SDS011;60343;-32.030;115.880;2023-11-19T11:56:06;8.77;;;1.42;;
72369;SDS011;60343;-32.030;115.880;2023-11-19T11:58:42;10.27;;;1.38;;
72369;SDS011;60343;-32.030;115.880;2023-11-19T12:01:21;8.40;;;1.33;;
72369;SDS011;60343;-32.030;115.880;2023-11-19T12:04:00;6.72;;;1.27;;
72369;SDS011;60343;-32.030;115.880;2023-11-19T12:06:38;9.15;;;1.40;;
72369;SDS011;60343;-32.030;115.880;2023-11-19T12:09:13;9.90;;;1.33;;
72369;SDS011;60343;-32.030;115.880;2023-11-19T12:11:55;8.18;;;1.30;;
72369;SDS011;60343;-32.030;115.880;2023-11-19T12:15:04;6.03;;;1.10;;
72369;SDS011;60343;-32.030;115.880;2023-11-19T12:17:48;9.55;;;1.30;;
72369;SDS011;60343;-32.030;115.880;2023-11-19T12:20:25;7.55;;;1.33;;
72369;SDS011;60343;-32.030;115.880;2023-11-19T12:23:04;8.68;;;1.45;;
72369;SDS011;60343;-32.030;115.880;2023-11-19T12:25:40;6.82;;;0.90;;
72369;SDS011;60343;-32.030;115.880;2023-11-19T12:28:21;5.40;;;1.08;;
72369;SDS011;60343;-32.030;115.880;2023-11-19T12:31:07;5.93;;;1.17;;
72369;SDS011;60343;-32.030;115.880;2023-11-19T12:33:43;5.57;;;1.05;;
72369;SDS011;60343;-32.030;115.880;2023-11-19T12:36:20;8.65;;;1.20;;
72369;SDS011;60343;-32.030;115.880;2023-11-19T12:38:56;5.63;;;1.08;;
72369;SDS011;60343;-32.030;115.880;2023-11-19T12:41:32;5.15;;;1.33;;
72369;SDS011;60343;-32.030;115.880;2023-11-19T12:44:28;6.82;;;1.30;;
72369;SDS011;60343;-32.030;115.880;2023-11-19T12:47:04;4.55;;;0.90;;
72369;SDS011;60343;-32.030;115.880;2023-11-19T12:52:16;6.25;;;1.13;;
72369;SDS011;60343;-32.030;115.880;2023-11-19T12:54:51;7.00;;;1.20;;
72369;SDS011;60343;-32.030;115.880;2023-11-19T12:57:37;7.05;;;1.00;;
72369;SDS011;60343;-32.030;115.880;2023-11-19T13:00:24;6.72;;;1.17;;
72369;SDS011;60343;-32.030;115.880;2023-11-19T13:03:00;6.60;;;1.20;;
72369;SDS011;60343;-32.030;115.880;2023-11-19T13:05:36;6.82;;;1.10;;
72369;SDS011;60343;-32.030;115.880;2023-11-19T13:08:12;8.45;;;1.33;;
72369;SDS011;60343;-32.030;115.880;2023-11-19T13:10:50;6.45;;;0.98;;
72369;SDS011;60343;-32.030;115.880;2023-11-19T13:13:27;9.57;;;1.25;;
72369;SDS011;60343;-32.030;115.880;2023-11-19T13:16:09;5.43;;;1.05;;
72369;SDS011;60343;-32.030;115.880;2023-11-19T13:18:44;6.03;;;1.10;;
72369;SDS011;60343;-32.030;115.880;2023-11-19T13:21:20;8.77;;;1.27;;
72369;SDS011;60343;-32.030;115.880;2023-11-19T13:23:56;8.77;;;1.10;;
72369;SDS011;60343;-32.030;115.880;2023-11-19T13:26:32;4.43;;;0.90;;
72369;SDS011;60343;-32.030;115.880;2023-11-19T13:29:07;7.45;;;1.13;;
72369;SDS011;60343;-32.030;115.880;2023-11-19T13:31:49;6.90;;;1.10;;
72369;SDS011;60343;-32.030;115.880;2023-11-19T13:34:26;5.30;;;1.00;;
72369;SDS011;60343;-32.030;115.880;2023-11-19T13:37:03;4.63;;;1.08;;
72369;SDS011;60343;-32.030;115.880;2023-11-19T13:39:41;7.32;;;1.42;;
72369;SDS011;60343;-32.030;115.880;2023-11-19T13:42:18;3.92;;;1.20;;
72369;SDS011;60343;-32.030;115.880;2023-11-19T13:44:54;3.97;;;1.30;;
72369;SDS011;60343;-32.030;115.880;2023-11-19T13:47:35;3.70;;;1.00;;
72369;SDS011;60343;-32.030;115.880;2023-11-19T13:50:12;6.20;;;0.90;;
72369;SDS011;60343;-32.030;115.880;2023-11-19T13:52:51;8.15;;;1.10;;
72369;SDS011;60343;-32.030;115.880;2023-11-19T13:55:27;4.93;;;1.02;;
72369;SDS011;60343;-32.030;115.880;2023-11-19T13:58:03;8.38;;;1.02;;
72369;SDS011;60343;-32.030;115.880;2023-11-19T14:00:39;4.40;;;0.98;;
72369;SDS011;60343;-32.030;115.880;2023-11-19T14:03:21;7.03;;;1.20;;
72369;SDS011;60343;-32.030;115.880;2023-11-19T14:05:57;8.23;;;0.93;;
72369;SDS011;60343;-32.030;115.880;2023-11-19T14:08:34;11.82;;;1.30;;
72369;SDS011;60343;-32.030;115.880;2023-11-19T14:11:10;5.38;;;1.05;;
72369;SDS011;60343;-32.030;115.880;2023-11-19T14:13:45;6.47;;;0.93;;
72369;SDS011;60343;-32.030;115.880;2023-11-19T14:16:21;6.78;;;0.98;;
72369;SDS011;60343;-32.030;115.880;2023-11-19T14:19:06;9.73;;;1.15;;
72369;SDS011;60343;-32.030;115.880;2023-11-19T14:21:42;4.45;;;1.00;;
72369;SDS011;60343;-32.030;115.880;2023-11-19T14:24:17;5.82;;;1.00;;
72369;SDS011;60343;-32.030;115.880;2023-11-19T14:26:53;7.43;;;0.95;;
72369;SDS011;60343;-32.030;115.880;2023-11-19T14:29:29;5.70;;;0.90;;
72369;SDS011;60343;-32.030;115.880;2023-11-19T14:32:05;5.03;;;0.95;;
72369;SDS011;60343;-32.030;115.880;2023-11-19T14:34:47;11.27;;;1.30;;
72369;SDS011;60343;-32.030;115.880;2023-11-19T14:37:22;5.47;;;1.00;;
72369;SDS011;60343;-32.030;115.880;2023-11-19T14:39:58;5.30;;;1.10;;
72369;SDS011;60343;-32.030;115.880;2023-11-19T14:42:36;7.30;;;1.15;;
72369;SDS011;60343;-32.030;115.880;2023-11-19T14:45:11;4.70;;;1.10;;
72369;SDS011;60343;-32.030;115.880;2023-11-19T14:47:48;12.13;;;1.23;;
72369;SDS011;60343;-32.030;115.880;2023-11-19T14:50:29;5.22;;;1.30;;
72369;SDS011;60343;-32.030;115.880;2023-11-19T14:53:05;5.78;;;1.00;;
72369;SDS011;60343;-32.030;115.880;2023-11-19T14:55:40;9.48;;;1.23;;
72369;SDS011;60343;-32.030;115.880;2023-11-19T14:58:16;5.20;;;0.90;;
72369;SDS011;60343;-32.030;115.880;2023-11-19T15:00:53;4.97;;;1.05;;
72369;SDS011;60343;-32.030;115.880;2023-11-19T15:03:30;8.23;;;1.20;;
72369;SDS011;60343;-32.030;115.880;2023-11-19T15:06:12;6.70;;;1.15;;
72369;SDS011;60343;-32.030;115.880;2023-11-19T15:08:50;4.68;;;0.90;;
72369;SDS011;60343;-32.030;115.880;2023-11-19T15:11:26;6.93;;;1.00;;
72369;SDS011;60343;-32.030;115.880;2023-11-19T15:14:03;9.52;;;1.13;;
72369;SDS011;60343;-32.030;115.880;2023-11-19T15:16:41;3.63;;;0.90;;
72369;SDS011;60343;-32.030;115.880;2023-11-19T15:19:17;8.52;;;1.35;;